sensor_id;sensor_type;location;lat;lon;timestamp;P1;durP1;ratioP1;P2;durP2;ratioP2
16870;SDS011;8552;48.120;-1.456;2022-09-30T00:01:31;8.40;;;4.13;;
16870;SDS011;8552;48.120;-1.456;2022-09-30T00:03:58;16.42;;;8.13;;
16870;SDS011;8552;48.120;-1.456;2022-09-30T00:06:25;19.53;;;8.17;;
16870;SDS011;8552;48.120;-1.456;2022-09-30T00:08:52;16.63;;;7.67;;
16870;SDS011;8552;48.120;-1.456;2022-09-30T00:11:19;10.38;;;5.93;;
16870;SDS011;8552;48.120;-1.456;2022-09-30T00:13:53;10.15;;;5.60;;
16870;SDS011;8552;48.120;-1.456;2022-09-30T00:16:20;8.77;;;5.70;;
16870;SDS011;8552;48.120;-1.456;2022-09-30T00:18:47;8.15;;;4.95;;
16870;SDS011;8552;48.120;-1.456;2022-09-30T00:21:14;9.00;;;5.13;;
16870;SDS011;8552;48.120;-1.456;2022-09-30T00:23:40;6.97;;;4.45;;
16870;SDS011;8552;48.120;-1.456;2022-09-30T00:26:09;6.50;;;4.20;;
16870;SDS011;8552;48.120;-1.456;2022-09-30T00:28:40;5.43;;;4.30;;
16870;SDS011;8552;48.120;-1.456;2022-09-30T00:31:07;6.70;;;4.10;;
16870;SDS011;8552;48.120;-1.456;2022-09-30T00:33:38;6.60;;;3.63;;
16870;SDS011;8552;48.120;-1.456;2022-09-30T00:36:04;6.47;;;3.60;;
16870;SDS011;8552;48.120;-1.456;2022-09-30T00:38:30;5.43;;;3.70;;
16870;SDS011;8552;48.120;-1.456;2022-09-30T00:40:56;4.43;;;3.53;;
16870;SDS011;8552;48.120;-1.456;2022-09-30T00:43:43;6.73;;;3.60;;
16870;SDS011;8552;48.120;-1.456;2022-09-30T00:49:07;9.67;;;3.73;;
16870;SDS011;8552;48.120;-1.456;2022-09-30T00:51:44;4.00;;;3.60;;
16870;SDS011;8552;48.120;-1.456;2022-09-30T00:54:14;4.33;;;3.70;;
16870;SDS011;8552;48.120;-1.456;2022-09-30T00:56:51;4.78;;;3.40;;
16870;SDS011;8552;48.120;-1.456;2022-09-30T00:59:26;3.30;;;3.00;;
16870;SDS011;8552;48.120;-1.456;2022-09-30T01:01:57;3.70;;;3.30;;
16870;SDS011;8552;48.120;-1.456;2022-09-30T01:04:24;3.90;;;3.50;;
16870;SDS011;8552;48.120;-1.456;2022-09-30T01:06:52;3.57;;;2.80;;
16870;SDS011;8552;48.120;-1.456;2022-09-30T01:09:18;4.73;;;3.57;;
16870;SDS011;8552;48.120;-1.456;2022-09-30T01:11:45;4.33;;;3.50;;
16870;SDS011;8552;48.120;-1.456;2022-09-30T01:16:48;5.03;;;2.70;;
16870;SDS011;8552;48.120;-1.456;2022-09-30T01:19:41;5.40;;;3.40;;
16870;SDS011;8552;48.120;-1.456;2022-09-30T01:36:17;5.37;;;3.97;;
16870;SDS011;8552;48.120;-1.456;2022-09-30T01:38:51;4.37;;;3.73;;
16870;SDS011;8552;48.120;-1.456;2022-09-30T01:46:46;3.77;;;3.27;;
16870;SDS011;8552;48.120;-1.456;2022-09-30T01:51:50;3.70;;;3.37;;
16870;SDS011;8552;48.120;-1.456;2022-09-30T01:57:14;3.93;;;2.80;;
16870;SDS011;8552;48.120;-1.456;2022-09-30T02:07:51;3.40;;;3.00;;
16870;SDS011;8552;48.120;-1.456;2022-09-30T02:13:07;4.37;;;3.70;;
16870;SDS011;8552;48.120;-1.456;2022-09-30T02:15:40;2.83;;;2.63;;
16870;SDS011;8552;48.120;-1.456;2022-09-30T02:18:12;3.67;;;3.33;;
16870;SDS011;8552;48.120;-1.456;2022-09-30T02:20:59;2.80;;;2.60;;
16870;SDS011;8552;48.120;-1.456;2022-09-30T02:23:30;5.50;;;3.30;;
16870;SDS011;8552;48.120;-1.456;2022-09-30T02:26:12;4.17;;;3.20;;
16870;SDS011;8552;48.120;-1.456;2022-09-30T02:28:48;6.33;;;3.20;;
16870;SDS011;8552;48.120;-1.456;2022-09-30T02:31:18;9.37;;;4.67;;
16870;SDS011;8552;48.120;-1.456;2022-09-30T02:33:49;3.40;;;3.10;;
16870;SDS011;8552;48.120;-1.456;2022-09-30T02:36:22;3.80;;;3.40;;
16870;SDS011;8552;48.120;-1.456;2022-09-30T02:38:58;3.87;;;3.50;;
16870;SDS011;8552;48.120;-1.456;2022-09-30T02:41:29;6.40;;;4.60;;
16870;SDS011;8552;48.120;-1.456;2022-09-30T02:44:04;3.53;;;3.23;;
16870;SDS011;8552;48.120;-1.456;2022-09-30T02:49:16;4.20;;;3.27;;
16870;SDS011;8552;48.120;-1.456;2022-09-30T02:57:14;2.80;;;2.60;;
16870;SDS011;8552;48.120;-1.456;2022-09-30T02:59:49;3.23;;;3.00;;
16870;SDS011;8552;48.120;-1.456;2022-09-30T03:02:16;3.97;;;3.17;;
16870;SDS011;8552;48.120;-1.456;2022-09-30T03:04:44;4.00;;;2.97;;
16870;SDS011;8552;48.120;-1.456;2022-09-30T03:07:10;3.50;;;3.20;;
16870;SDS011;8552;48.120;-1.456;2022-09-30T03:09:37;3.37;;;3.07;;
16870;SDS011;8552;48.120;-1.456;2022-09-30T03:31:07;4.13;;;3.60;;
16870;SDS011;8552;48.120;-1.456;2022-09-30T03:33:49;3.57;;;2.73;;
16870;SDS011;8552;48.120;-1.456;2022-09-30T03:39:23;3.87;;;3.27;;
16870;SDS011;8552;48.120;-1.456;2022-09-30T03:42:17;5.40;;;3.20;;
16870;SDS011;8552;48.120;-1.456;2022-09-30T03:47:41;3.80;;;3.13;;
16870;SDS011;8552;48.120;-1.456;2022-09-30T03:50:11;3.53;;;3.13;;
16870;SDS011;8552;48.120;-1.456;2022-09-30T03:52:42;3.10;;;2.70;;
16870;SDS011;8552;48.120;-1.456;2022-09-30T03:55:08;5.27;;;2.83;;
16870;SDS011;8552;48.120;-1.456;2022-09-30T03:57:36;3.97;;;2.90;;
16870;SDS011;8552;48.120;-1.456;2022-09-30T04:00:02;4.83;;;2.80;;
16870;SDS011;8552;48.120;-1.456;2022-09-30T04:02:29;4.17;;;2.93;;
16870;SDS011;8552;48.120;-1.456;2022-09-30T04:04:55;6.00;;;3.40;;
16870;SDS011;8552;48.120;-1.456;2022-09-30T04:07:21;4.13;;;2.93;;
16870;SDS011;8552;48.120;-1.456;2022-09-30T04:09:46;4.20;;;3.30;;
16870;SDS011;8552;48.120;-1.456;2022-09-30T04:12:12;4.00;;;2.77;;
16870;SDS011;8552;48.120;-1.456;2022-09-30T04:14:38;3.87;;;3.10;;
16870;SDS011;8552;48.120;-1.456;2022-09-30T04:17:04;3.30;;;2.80;;
16870;SDS011;8552;48.120;-1.456;2022-09-30T04:19:30;3.40;;;3.10;;
16870;SDS011;8552;48.120;-1.456;2022-09-30T04:21:56;4.33;;;3.27;;
16870;SDS011;8552;48.120;-1.456;2022-09-30T04:24:22;3.87;;;3.40;;
16870;SDS011;8552;48.120;-1.456;2022-09-30T04:26:49;3.07;;;2.77;;
16870;SDS011;8552;48.120;-1.456;2022-09-30T04:29:15;3.97;;;3.10;;
16870;SDS011;8552;48.120;-1.456;2022-09-30T04:31:41;3.67;;;3.37;;
16870;SDS011;8552;48.120;-1.456;2022-09-30T04:34:06;4.17;;;2.93;;
16870;SDS011;8552;48.120;-1.456;2022-09-30T04:36:34;3.90;;;3.07;;
16870;SDS011;8552;48.120;-1.456;2022-09-30T04:39:00;4.17;;;3.40;;
16870;SDS011;8552;48.120;-1.456;2022-09-30T04:41:25;4.77;;;3.80;;
16870;SDS011;8552;48.120;-1.456;2022-09-30T04:43:51;5.50;;;4.20;;
16870;SDS011;8552;48.120;-1.456;2022-09-30T04:46:18;5.40;;;3.80;;
16870;SDS011;8552;48.120;-1.456;2022-09-30T04:48:46;6.97;;;3.97;;
16870;SDS011;8552;48.120;-1.456;2022-09-30T04:51:13;5.80;;;3.90;;
16870;SDS011;8552;48.120;-1.456;2022-09-30T04:53:43;5.70;;;3.97;;
16870;SDS011;8552;48.120;-1.456;2022-09-30T04:56:10;5.67;;;4.77;;
16870;SDS011;8552;48.120;-1.456;2022-09-30T04:58:36;3.73;;;3.33;;
16870;SDS011;8552;48.120;-1.456;2022-09-30T05:01:06;5.77;;;4.40;;
16870;SDS011;8552;48.120;-1.456;2022-09-30T05:03:33;5.63;;;3.80;;
16870;SDS011;8552;48.120;-1.456;2022-09-30T05:05:59;4.77;;;3.03;;
16870;SDS011;8552;48.120;-1.456;2022-09-30T05:08:26;11.17;;;5.87;;
16870;SDS011;8552;48.120;-1.456;2022-09-30T05:10:55;13.47;;;7.63;;
16870;SDS011;8552;48.120;-1.456;2022-09-30T05:13:23;11.70;;;6.90;;
16870;SDS011;8552;48.120;-1.456;2022-09-30T05:15:50;14.70;;;7.33;;
16870;SDS011;8552;48.120;-1.456;2022-09-30T05:18:17;10.97;;;6.83;;
16870;SDS011;8552;48.120;-1.456;2022-09-30T05:20:44;15.37;;;7.50;;
16870;SDS011;8552;48.120;-1.456;2022-09-30T05:23:09;16.37;;;7.30;;
16870;SDS011;8552;48.120;-1.456;2022-09-30T05:25:35;17.27;;;6.93;;
16870;SDS011;8552;48.120;-1.456;2022-09-30T05:28:00;8.57;;;5.33;;
16870;SDS011;8552;48.120;-1.456;2022-09-30T05:30:27;13.67;;;6.40;;
16870;SDS011;8552;48.120;-1.456;2022-09-30T05:32:52;13.63;;;7.00;;
16870;SDS011;8552;48.120;-1.456;2022-09-30T05:35:18;11.97;;;6.23;;
16870;SDS011;8552;48.120;-1.456;2022-09-30T05:37:44;14.53;;;6.70;;
16870;SDS011;8552;48.120;-1.456;2022-09-30T05:40:09;15.00;;;6.90;;
16870;SDS011;8552;48.120;-1.456;2022-09-30T05:42:35;11.20;;;6.70;;
16870;SDS011;8552;48.120;-1.456;2022-09-30T05:45:04;9.23;;;5.83;;
16870;SDS011;8552;48.120;-1.456;2022-09-30T05:47:31;6.70;;;4.77;;
16870;SDS011;8552;48.120;-1.456;2022-09-30T05:49:58;6.17;;;4.37;;
16870;SDS011;8552;48.120;-1.456;2022-09-30T05:52:24;6.50;;;3.90;;
16870;SDS011;8552;48.120;-1.456;2022-09-30T05:54:50;9.57;;;4.17;;
16870;SDS011;8552;48.120;-1.456;2022-09-30T05:57:16;6.93;;;4.23;;
16870;SDS011;8552;48.120;-1.456;2022-09-30T05:59:42;4.10;;;3.60;;
16870;SDS011;8552;48.120;-1.456;2022-09-30T06:02:08;8.97;;;4.17;;
16870;SDS011;8552;48.120;-1.456;2022-09-30T06:04:34;9.13;;;5.10;;
16870;SDS011;8552;48.120;-1.456;2022-09-30T06:07:00;10.87;;;5.77;;
16870;SDS011;8552;48.120;-1.456;2022-09-30T06:09:26;14.57;;;6.40;;
16870;SDS011;8552;48.120;-1.456;2022-09-30T06:11:52;9.00;;;5.83;;
16870;SDS011;8552;48.120;-1.456;2022-09-30T06:14:22;10.00;;;5.97;;
16870;SDS011;8552;48.120;-1.456;2022-09-30T06:16:48;9.63;;;5.23;;
16870;SDS011;8552;48.120;-1.456;2022-09-30T06:19:13;9.53;;;5.40;;
16870;SDS011;8552;48.120;-1.456;2022-09-30T06:21:39;16.40;;;6.57;;
16870;SDS011;8552;48.120;-1.456;2022-09-30T06:24:05;11.30;;;6.60;;
16870;SDS011;8552;48.120;-1.456;2022-09-30T06:26:36;8.23;;;5.33;;
16870;SDS011;8552;48.120;-1.456;2022-09-30T06:29:03;8.37;;;6.00;;
16870;SDS011;8552;48.120;-1.456;2022-09-30T06:31:29;8.53;;;6.00;;
16870;SDS011;8552;48.120;-1.456;2022-09-30T06:33:55;11.47;;;8.30;;
16870;SDS011;8552;48.120;-1.456;2022-09-30T06:36:22;14.13;;;8.80;;
16870;SDS011;8552;48.120;-1.456;2022-09-30T06:38:48;11.03;;;7.43;;
16870;SDS011;8552;48.120;-1.456;2022-09-30T06:41:17;12.27;;;7.90;;
16870;SDS011;8552;48.120;-1.456;2022-09-30T06:43:44;10.03;;;7.20;;
16870;SDS011;8552;48.120;-1.456;2022-09-30T06:46:10;10.60;;;7.50;;
16870;SDS011;8552;48.120;-1.456;2022-09-30T06:48:37;10.17;;;7.60;;
16870;SDS011;8552;48.120;-1.456;2022-09-30T06:51:04;8.93;;;6.20;;
16870;SDS011;8552;48.120;-1.456;2022-09-30T06:53:34;9.50;;;7.00;;
16870;SDS011;8552;48.120;-1.456;2022-09-30T06:56:07;15.57;;;11.17;;
16870;SDS011;8552;48.120;-1.456;2022-09-30T06:58:33;21.73;;;14.27;;
16870;SDS011;8552;48.120;-1.456;2022-09-30T07:00:59;22.57;;;11.93;;
16870;SDS011;8552;48.120;-1.456;2022-09-30T07:03:28;19.97;;;11.20;;
16870;SDS011;8552;48.120;-1.456;2022-09-30T07:06:00;23.70;;;11.77;;
16870;SDS011;8552;48.120;-1.456;2022-09-30T07:08:28;20.73;;;10.50;;
16870;SDS011;8552;48.120;-1.456;2022-09-30T07:11:03;16.00;;;11.33;;
16870;SDS011;8552;48.120;-1.456;2022-09-30T07:13:36;28.07;;;15.13;;
16870;SDS011;8552;48.120;-1.456;2022-09-30T07:16:03;17.37;;;9.77;;
16870;SDS011;8552;48.120;-1.456;2022-09-30T07:18:29;13.87;;;8.40;;
16870;SDS011;8552;48.120;-1.456;2022-09-30T07:20:55;10.13;;;6.93;;
16870;SDS011;8552;48.120;-1.456;2022-09-30T07:23:21;10.47;;;6.47;;
16870;SDS011;8552;48.120;-1.456;2022-09-30T07:25:54;7.57;;;5.77;;
16870;SDS011;8552;48.120;-1.456;2022-09-30T07:28:22;6.70;;;4.93;;
16870;SDS011;8552;48.120;-1.456;2022-09-30T07:30:52;7.47;;;5.73;;
16870;SDS011;8552;48.120;-1.456;2022-09-30T07:33:20;11.00;;;7.27;;
16870;SDS011;8552;48.120;-1.456;2022-09-30T07:35:54;13.93;;;10.47;;
16870;SDS011;8552;48.120;-1.456;2022-09-30T07:38:21;13.80;;;8.90;;
16870;SDS011;8552;48.120;-1.456;2022-09-30T07:40:50;13.47;;;9.37;;
16870;SDS011;8552;48.120;-1.456;2022-09-30T07:43:26;10.80;;;9.40;;
16870;SDS011;8552;48.120;-1.456;2022-09-30T07:46:03;13.73;;;11.50;;
16870;SDS011;8552;48.120;-1.456;2022-09-30T07:48:30;13.80;;;11.63;;
16870;SDS011;8552;48.120;-1.456;2022-09-30T07:51:09;17.70;;;13.83;;
16870;SDS011;8552;48.120;-1.456;2022-09-30T07:53:41;23.57;;;15.80;;
16870;SDS011;8552;48.120;-1.456;2022-09-30T07:56:08;23.97;;;15.87;;
16870;SDS011;8552;48.120;-1.456;2022-09-30T07:58:35;34.50;;;17.10;;
16870;SDS011;8552;48.120;-1.456;2022-09-30T08:01:01;32.23;;;17.40;;
16870;SDS011;8552;48.120;-1.456;2022-09-30T08:03:27;50.27;;;19.07;;
16870;SDS011;8552;48.120;-1.456;2022-09-30T08:05:53;35.57;;;20.27;;
16870;SDS011;8552;48.120;-1.456;2022-09-30T08:08:19;33.53;;;19.57;;
16870;SDS011;8552;48.120;-1.456;2022-09-30T08:10:45;43.67;;;22.40;;
16870;SDS011;8552;48.120;-1.456;2022-09-30T08:13:11;52.80;;;22.77;;
16870;SDS011;8552;48.120;-1.456;2022-09-30T08:15:38;46.40;;;24.87;;
16870;SDS011;8552;48.120;-1.456;2022-09-30T08:18:04;47.27;;;25.77;;
16870;SDS011;8552;48.120;-1.456;2022-09-30T08:20:30;63.07;;;26.67;;
16870;SDS011;8552;48.120;-1.456;2022-09-30T08:22:56;57.53;;;26.23;;
16870;SDS011;8552;48.120;-1.456;2022-09-30T08:25:22;52.83;;;28.30;;
16870;SDS011;8552;48.120;-1.456;2022-09-30T08:27:48;48.40;;;27.70;;
16870;SDS011;8552;48.120;-1.456;2022-09-30T08:30:14;45.13;;;27.97;;
16870;SDS011;8552;48.120;-1.456;2022-09-30T08:32:41;42.47;;;26.53;;
16870;SDS011;8552;48.120;-1.456;2022-09-30T08:35:06;39.17;;;27.93;;
16870;SDS011;8552;48.120;-1.456;2022-09-30T08:37:32;41.20;;;29.03;;
16870;SDS011;8552;48.120;-1.456;2022-09-30T08:39:59;41.70;;;28.07;;
16870;SDS011;8552;48.120;-1.456;2022-09-30T08:42:43;41.30;;;29.17;;
16870;SDS011;8552;48.120;-1.456;2022-09-30T08:51:03;41.67;;;25.00;;
16870;SDS011;8552;48.120;-1.456;2022-09-30T08:53:37;37.83;;;23.90;;
16870;SDS011;8552;48.120;-1.456;2022-09-30T08:56:06;32.57;;;23.97;;
16870;SDS011;8552;48.120;-1.456;2022-09-30T08:58:40;31.52;;;21.75;;
16870;SDS011;8552;48.120;-1.456;2022-09-30T09:01:19;31.17;;;22.43;;
16870;SDS011;8552;48.120;-1.456;2022-09-30T09:04:04;30.43;;;22.17;;
16870;SDS011;8552;48.120;-1.456;2022-09-30T09:11:57;22.83;;;18.53;;
16870;SDS011;8552;48.120;-1.456;2022-09-30T09:14:38;23.52;;;19.05;;
16870;SDS011;8552;48.120;-1.456;2022-09-30T09:17:29;23.25;;;18.90;;
16870;SDS011;8552;48.120;-1.456;2022-09-30T09:22:41;21.08;;;17.80;;
16870;SDS011;8552;48.120;-1.456;2022-09-30T09:25:11;21.73;;;16.48;;
16870;SDS011;8552;48.120;-1.456;2022-09-30T09:27:50;20.88;;;17.33;;
16870;SDS011;8552;48.120;-1.456;2022-09-30T09:30:22;20.10;;;15.93;;
16870;SDS011;8552;48.120;-1.456;2022-09-30T09:32:59;13.40;;;12.10;;
16870;SDS011;8552;48.120;-1.456;2022-09-30T09:44:17;6.30;;;5.70;;
16870;SDS011;8552;48.120;-1.456;2022-09-30T09:46:50;7.60;;;5.30;;
16870;SDS011;8552;48.120;-1.456;2022-09-30T09:49:33;5.47;;;4.97;;
16870;SDS011;8552;48.120;-1.456;2022-09-30T09:54:45;5.15;;;4.18;;
16870;SDS011;8552;48.120;-1.456;2022-09-30T09:57:19;8.20;;;4.45;;
16870;SDS011;8552;48.120;-1.456;2022-09-30T10:00:08;4.90;;;4.30;;
16870;SDS011;8552;48.120;-1.456;2022-09-30T10:08:52;4.50;;;3.22;;
16870;SDS011;8552;48.120;-1.456;2022-09-30T10:11:21;2.35;;;2.15;;
16870;SDS011;8552;48.120;-1.456;2022-09-30T10:13:48;3.10;;;2.80;;
16870;SDS011;8552;48.120;-1.456;2022-09-30T10:16:35;3.47;;;2.20;;
16870;SDS011;8552;48.120;-1.456;2022-09-30T10:19:16;2.50;;;2.30;;
16870;SDS011;8552;48.120;-1.456;2022-09-30T10:21:45;2.35;;;1.73;;
16870;SDS011;8552;48.120;-1.456;2022-09-30T10:24:25;2.67;;;2.05;;
16870;SDS011;8552;48.120;-1.456;2022-09-30T10:26:53;2.00;;;1.55;;
16870;SDS011;8552;48.120;-1.456;2022-09-30T10:29:29;1.70;;;1.60;;
16870;SDS011;8552;48.120;-1.456;2022-09-30T10:32:04;3.65;;;1.35;;
16870;SDS011;8552;48.120;-1.456;2022-09-30T10:37:17;1.13;;;1.10;;
16870;SDS011;8552;48.120;-1.456;2022-09-30T10:39:57;2.50;;;1.02;;
16870;SDS011;8552;48.120;-1.456;2022-09-30T10:42:32;6.95;;;5.40;;
16870;SDS011;8552;48.120;-1.456;2022-09-30T10:45:05;0.70;;;0.70;;
16870;SDS011;8552;48.120;-1.456;2022-09-30T10:47:56;0.70;;;0.50;;
16870;SDS011;8552;48.120;-1.456;2022-09-30T10:50:25;0.35;;;0.35;;
16870;SDS011;8552;48.120;-1.456;2022-09-30T10:53:00;0.43;;;0.43;;
16870;SDS011;8552;48.120;-1.456;2022-09-30T10:55:37;2.60;;;0.40;;
16870;SDS011;8552;48.120;-1.456;2022-09-30T10:58:56;0.65;;;0.45;;
16870;SDS011;8552;48.120;-1.456;2022-09-30T11:01:29;0.77;;;0.20;;
16870;SDS011;8552;48.120;-1.456;2022-09-30T11:06:39;1.88;;;0.47;;
16870;SDS011;8552;48.120;-1.456;2022-09-30T11:09:06;1.58;;;0.50;;
16870;SDS011;8552;48.120;-1.456;2022-09-30T11:12:31;0.93;;;0.30;;
16870;SDS011;8552;48.120;-1.456;2022-09-30T11:15:10;1.10;;;0.55;;
16870;SDS011;8552;48.120;-1.456;2022-09-30T11:17:57;0.98;;;0.98;;
16870;SDS011;8552;48.120;-1.456;2022-09-30T11:20:30;0.57;;;0.57;;
16870;SDS011;8552;48.120;-1.456;2022-09-30T11:23:01;0.70;;;0.50;;
16870;SDS011;8552;48.120;-1.456;2022-09-30T11:25:53;1.15;;;0.85;;
16870;SDS011;8552;48.120;-1.456;2022-09-30T11:39:07;1.98;;;0.70;;
16870;SDS011;8552;48.120;-1.456;2022-09-30T11:42:39;0.40;;;0.30;;
16870;SDS011;8552;48.120;-1.456;2022-09-30T11:56:11;0.73;;;0.60;;
16870;SDS011;8552;48.120;-1.456;2022-09-30T11:58:25;3.05;;;1.10;;
16870;SDS011;8552;48.120;-1.456;2022-09-30T12:00:59;1.45;;;0.63;;
16870;SDS011;8552;48.120;-1.456;2022-09-30T12:03:45;1.52;;;0.88;;
16870;SDS011;8552;48.120;-1.456;2022-09-30T12:06:27;0.98;;;0.70;;
16870;SDS011;8552;48.120;-1.456;2022-09-30T12:09:14;0.68;;;0.68;;
16870;SDS011;8552;48.120;-1.456;2022-09-30T12:11:58;0.90;;;0.80;;
16870;SDS011;8552;48.120;-1.456;2022-09-30T12:14:29;1.00;;;1.00;;
16870;SDS011;8552;48.120;-1.456;2022-09-30T12:17:20;0.82;;;0.82;;
16870;SDS011;8552;48.120;-1.456;2022-09-30T12:19:55;1.05;;;1.00;;
16870;SDS011;8552;48.120;-1.456;2022-09-30T12:22:28;1.48;;;0.80;;
16870;SDS011;8552;48.120;-1.456;2022-09-30T12:24:59;1.95;;;1.00;;
16870;SDS011;8552;48.120;-1.456;2022-09-30T12:27:39;1.33;;;1.23;;
16870;SDS011;8552;48.120;-1.456;2022-09-30T12:30:15;1.85;;;1.25;;
16870;SDS011;8552;48.120;-1.456;2022-09-30T12:49:31;2.10;;;1.00;;
16870;SDS011;8552;48.120;-1.456;2022-09-30T12:52:15;2.55;;;1.48;;
16870;SDS011;8552;48.120;-1.456;2022-09-30T12:57:22;0.60;;;0.60;;
16870;SDS011;8552;48.120;-1.456;2022-09-30T12:59:55;1.20;;;1.10;;
16870;SDS011;8552;48.120;-1.456;2022-09-30T13:02:27;0.68;;;0.63;;
16870;SDS011;8552;48.120;-1.456;2022-09-30T13:10:29;2.05;;;1.02;;
16870;SDS011;8552;48.120;-1.456;2022-09-30T13:15:55;1.80;;;1.10;;
16870;SDS011;8552;48.120;-1.456;2022-09-30T13:21:01;1.40;;;1.15;;
16870;SDS011;8552;48.120;-1.456;2022-09-30T13:23:44;0.80;;;0.80;;
16870;SDS011;8552;48.120;-1.456;2022-09-30T13:28:52;1.15;;;1.00;;
16870;SDS011;8552;48.120;-1.456;2022-09-30T13:31:22;0.60;;;0.52;;
16870;SDS011;8552;48.120;-1.456;2022-09-30T13:44:58;1.20;;;1.10;;
16870;SDS011;8552;48.120;-1.456;2022-09-30T13:47:49;1.73;;;1.15;;
16870;SDS011;8552;48.120;-1.456;2022-09-30T13:53:15;0.95;;;0.65;;
16870;SDS011;8552;48.120;-1.456;2022-09-30T13:55:44;0.98;;;0.88;;
16870;SDS011;8552;48.120;-1.456;2022-09-30T14:04:30;2.25;;;1.20;;
16870;SDS011;8552;48.120;-1.456;2022-09-30T14:11:59;1.92;;;1.30;;
16870;SDS011;8552;48.120;-1.456;2022-09-30T14:17:53;2.50;;;1.60;;
16870;SDS011;8552;48.120;-1.456;2022-09-30T14:23:16;1.35;;;1.25;;
16870;SDS011;8552;48.120;-1.456;2022-09-30T14:25:55;1.23;;;1.13;;
16870;SDS011;8552;48.120;-1.456;2022-09-30T14:28:34;2.50;;;1.20;;
16870;SDS011;8552;48.120;-1.456;2022-09-30T14:31:02;1.15;;;1.13;;
16870;SDS011;8552;48.120;-1.456;2022-09-30T14:33:37;1.25;;;1.00;;
16870;SDS011;8552;48.120;-1.456;2022-09-30T14:36:05;1.95;;;0.63;;
16870;SDS011;8552;48.120;-1.456;2022-09-30T14:38:35;2.63;;;0.50;;
16870;SDS011;8552;48.120;-1.456;2022-09-30T14:41:03;0.80;;;0.80;;
16870;SDS011;8552;48.120;-1.456;2022-09-30T14:43:40;2.90;;;1.55;;
16870;SDS011;8552;48.120;-1.456;2022-09-30T14:46:32;3.28;;;1.17;;
16870;SDS011;8552;48.120;-1.456;2022-09-30T14:49:07;2.65;;;1.48;;
16870;SDS011;8552;48.120;-1.456;2022-09-30T14:51:41;4.60;;;1.15;;
16870;SDS011;8552;48.120;-1.456;2022-09-30T14:56:44;0.80;;;0.57;;
16870;SDS011;8552;48.120;-1.456;2022-09-30T14:59:15;1.70;;;1.50;;
16870;SDS011;8552;48.120;-1.456;2022-09-30T15:02:14;1.33;;;1.23;;
16870;SDS011;8552;48.120;-1.456;2022-09-30T15:04:41;2.15;;;1.70;;
16870;SDS011;8552;48.120;-1.456;2022-09-30T15:07:18;3.90;;;2.83;;
16870;SDS011;8552;48.120;-1.456;2022-09-30T15:09:45;1.25;;;0.85;;
16870;SDS011;8552;48.120;-1.456;2022-09-30T15:12:21;2.03;;;1.38;;
16870;SDS011;8552;48.120;-1.456;2022-09-30T15:14:56;1.08;;;0.82;;
16870;SDS011;8552;48.120;-1.456;2022-09-30T15:17:24;1.02;;;0.90;;
16870;SDS011;8552;48.120;-1.456;2022-09-30T15:19:52;1.48;;;1.38;;
16870;SDS011;8552;48.120;-1.456;2022-09-30T15:22:19;0.82;;;0.82;;
16870;SDS011;8552;48.120;-1.456;2022-09-30T15:24:47;1.00;;;0.90;;
16870;SDS011;8552;48.120;-1.456;2022-09-30T15:27:20;1.90;;;1.70;;
16870;SDS011;8552;48.120;-1.456;2022-09-30T15:29:58;2.33;;;1.48;;
16870;SDS011;8552;48.120;-1.456;2022-09-30T15:32:30;2.28;;;1.45;;
16870;SDS011;8552;48.120;-1.456;2022-09-30T15:35:06;0.85;;;0.60;;
16870;SDS011;8552;48.120;-1.456;2022-09-30T15:37:36;0.90;;;0.90;;
16870;SDS011;8552;48.120;-1.456;2022-09-30T15:40:02;0.82;;;0.63;;
16870;SDS011;8552;48.120;-1.456;2022-09-30T15:42:55;0.55;;;0.50;;
16870;SDS011;8552;48.120;-1.456;2022-09-30T15:45:35;0.68;;;0.68;;
16870;SDS011;8552;48.120;-1.456;2022-09-30T15:50:50;3.03;;;0.68;;
16870;SDS011;8552;48.120;-1.456;2022-09-30T15:53:31;1.73;;;0.88;;
16870;SDS011;8552;48.120;-1.456;2022-09-30T15:58:59;1.92;;;0.93;;
16870;SDS011;8552;48.120;-1.456;2022-09-30T16:01:36;1.27;;;0.70;;
16870;SDS011;8552;48.120;-1.456;2022-09-30T16:11:45;2.45;;;0.88;;
16870;SDS011;8552;48.120;-1.456;2022-09-30T16:14:28;2.45;;;0.80;;
16870;SDS011;8552;48.120;-1.456;2022-09-30T16:17:02;0.55;;;0.50;;
16870;SDS011;8552;48.120;-1.456;2022-09-30T16:19:29;4.40;;;0.70;;
16870;SDS011;8552;48.120;-1.456;2022-09-30T16:21:56;1.02;;;0.73;;
16870;SDS011;8552;48.120;-1.456;2022-09-30T16:26:52;3.38;;;1.35;;
16870;SDS011;8552;48.120;-1.456;2022-09-30T16:29:23;3.90;;;1.17;;
16870;SDS011;8552;48.120;-1.456;2022-09-30T16:31:50;0.93;;;0.60;;
16870;SDS011;8552;48.120;-1.456;2022-09-30T16:34:22;2.72;;;0.95;;
16870;SDS011;8552;48.120;-1.456;2022-09-30T16:36:53;1.58;;;1.13;;
16870;SDS011;8552;48.120;-1.456;2022-09-30T16:39:27;2.35;;;0.90;;
16870;SDS011;8552;48.120;-1.456;2022-09-30T16:41:52;3.03;;;1.10;;
16870;SDS011;8552;48.120;-1.456;2022-09-30T16:44:18;2.67;;;0.98;;
16870;SDS011;8552;48.120;-1.456;2022-09-30T16:46:45;1.20;;;1.10;;
16870;SDS011;8552;48.120;-1.456;2022-09-30T16:49:11;2.97;;;1.02;;
16870;SDS011;8552;48.120;-1.456;2022-09-30T16:51:42;2.42;;;1.25;;
16870;SDS011;8552;48.120;-1.456;2022-09-30T16:54:16;3.22;;;2.05;;
16870;SDS011;8552;48.120;-1.456;2022-09-30T16:56:41;3.22;;;2.30;;
16870;SDS011;8552;48.120;-1.456;2022-09-30T16:59:11;1.92;;;1.20;;
16870;SDS011;8552;48.120;-1.456;2022-09-30T17:01:39;3.05;;;2.17;;
16870;SDS011;8552;48.120;-1.456;2022-09-30T17:04:05;3.63;;;1.40;;
16870;SDS011;8552;48.120;-1.456;2022-09-30T17:06:31;2.03;;;1.10;;
16870;SDS011;8552;48.120;-1.456;2022-09-30T17:08:58;5.45;;;1.45;;
16870;SDS011;8552;48.120;-1.456;2022-09-30T17:11:27;3.05;;;1.33;;
16870;SDS011;8552;48.120;-1.456;2022-09-30T17:13:56;3.38;;;1.77;;
16870;SDS011;8552;48.120;-1.456;2022-09-30T17:16:26;3.13;;;1.40;;
16870;SDS011;8552;48.120;-1.456;2022-09-30T17:18:52;3.50;;;1.67;;
16870;SDS011;8552;48.120;-1.456;2022-09-30T17:21:19;2.38;;;1.73;;
16870;SDS011;8552;48.120;-1.456;2022-09-30T17:23:46;2.45;;;1.85;;
16870;SDS011;8552;48.120;-1.456;2022-09-30T17:26:12;3.63;;;2.20;;
16870;SDS011;8552;48.120;-1.456;2022-09-30T17:28:37;2.85;;;1.70;;
16870;SDS011;8552;48.120;-1.456;2022-09-30T17:31:03;8.50;;;2.30;;
16870;SDS011;8552;48.120;-1.456;2022-09-30T17:33:33;4.13;;;1.85;;
16870;SDS011;8552;48.120;-1.456;2022-09-30T17:36:01;4.53;;;2.70;;
16870;SDS011;8552;48.120;-1.456;2022-09-30T17:38:30;4.88;;;2.72;;
16870;SDS011;8552;48.120;-1.456;2022-09-30T17:40:58;3.88;;;2.08;;
16870;SDS011;8552;48.120;-1.456;2022-09-30T17:43:42;3.13;;;2.13;;
16870;SDS011;8552;48.120;-1.456;2022-09-30T17:46:11;4.00;;;2.20;;
16870;SDS011;8552;48.120;-1.456;2022-09-30T17:48:42;3.00;;;2.53;;
16870;SDS011;8552;48.120;-1.456;2022-09-30T17:51:09;4.32;;;2.63;;
16870;SDS011;8552;48.120;-1.456;2022-09-30T17:53:35;4.22;;;2.33;;
16870;SDS011;8552;48.120;-1.456;2022-09-30T17:56:05;4.25;;;2.28;;
16870;SDS011;8552;48.120;-1.456;2022-09-30T17:58:38;2.78;;;2.15;;
16870;SDS011;8552;48.120;-1.456;2022-09-30T18:01:07;5.00;;;3.13;;
16870;SDS011;8552;48.120;-1.456;2022-09-30T18:03:33;4.65;;;2.60;;
16870;SDS011;8552;48.120;-1.456;2022-09-30T18:05:59;3.25;;;2.40;;
16870;SDS011;8552;48.120;-1.456;2022-09-30T18:08:25;5.53;;;2.33;;
16870;SDS011;8552;48.120;-1.456;2022-09-30T18:10:52;3.20;;;2.25;;
16870;SDS011;8552;48.120;-1.456;2022-09-30T18:13:21;6.57;;;2.35;;
16870;SDS011;8552;48.120;-1.456;2022-09-30T18:15:57;6.70;;;2.95;;
16870;SDS011;8552;48.120;-1.456;2022-09-30T18:18:26;6.35;;;3.22;;
16870;SDS011;8552;48.120;-1.456;2022-09-30T18:20:52;3.88;;;2.17;;
16870;SDS011;8552;48.120;-1.456;2022-09-30T18:23:18;3.47;;;1.95;;
16870;SDS011;8552;48.120;-1.456;2022-09-30T18:25:44;5.78;;;1.98;;
16870;SDS011;8552;48.120;-1.456;2022-09-30T18:28:11;3.45;;;1.50;;
16870;SDS011;8552;48.120;-1.456;2022-09-30T18:30:37;5.97;;;1.67;;
16870;SDS011;8552;48.120;-1.456;2022-09-30T18:33:04;7.57;;;2.03;;
16870;SDS011;8552;48.120;-1.456;2022-09-30T18:35:34;3.25;;;2.03;;
16870;SDS011;8552;48.120;-1.456;2022-09-30T18:38:01;2.75;;;1.75;;
16870;SDS011;8552;48.120;-1.456;2022-09-30T18:40:28;7.55;;;3.00;;
16870;SDS011;8552;48.120;-1.456;2022-09-30T18:42:55;3.20;;;1.85;;